MOL Celebration — C6WW7 — position and weather

sailwx.info

Track history (hours):
 
Tides and Currents Weather Stations Pressure Air Temp Water Temp Dewpoint Dewpoint Depression Visibility Wind Speed Wind Dir Waves Ship Positions

MOL Celebration

Last reported at 2015-Jul-06 18:08 UTC. Time now 2015-Jul-07 21:54 UTC.
Position N 23°51' E 118°29'.

Length 316 m; draft 13.2 m.

Type: Ship (hazmat cat D). MMSI: 309901000.

Date/timePositionNaut miles runAvg speedWind from/ knotsBaromVisibWave heightAir tempDewpointWater temp
2015-Jul-06 18:08N 23°51' E 118°29'1517.9
2015-Jul-06 17:17N 23°42' E 118°15'22917.8
2015-Jul-06 04:22N 22°07' E 114°28'2211.8
2015-Jul-06 02:31N 22°16' E 114°07'4 4.1
2015-Jul-06 01:33N 22°20' E 114°08'0 0.0
2015-Jul-06 00:33N 22°20' E 114°08'0 0.0
2015-Jul-05 23:33N 22°20' E 114°08'0 0.0
2015-Jul-05 22:33N 22°20' E 114°08'0 0.0
2015-Jul-05 21:33N 22°20' E 114°08'0 0.0
2015-Jul-05 20:33N 22°20' E 114°08'0 0.0
2015-Jul-05 19:33N 22°20' E 114°08'0 0.0
2015-Jul-05 18:33N 22°20' E 114°08'0 0.0
2015-Jul-05 17:30N 22°20' E 114°08'0 0.0
2015-Jul-05 16:33N 22°20' E 114°08'0 0.0
2015-Jul-05 15:21N 22°20' E 114°08'0 0.0
2015-Jul-05 14:33N 22°20' E 114°08'0 0.0
2015-Jul-05 12:33N 22°20' E 114°08'0 0.0
2015-Jul-05 10:24N 22°20' E 114°08'0 0.0
2015-Jul-05 09:17N 22°20' E 114°08'0 0.0
2015-Jul-05 08:33N 22°20' E 114°08'0 0.0
2015-Jul-05 07:27N 22°20' E 114°08'0 0.0
2015-Jul-05 06:33N 22°20' E 114°08'0 0.0
2015-Jul-05 05:30N 22°20' E 114°08'0 0.4
2015-Jul-05 04:33N 22°20' E 114°07'8 7.1
2015-Jul-05 03:29N 22°13' E 114°10'8 7.9
2015-Jul-05 02:29N 22°09' E 114°18'8 8.1
2015-Jul-05 01:33N 22°07' E 114°25'6 6.2
2015-Jul-05 00:33N 22°01' E 114°25'6 4.9
2015-Jul-04 23:20N 21°55' E 114°24'2 2.3
2015-Jul-04 22:33N 21°53' E 114°24'1110.4
2015-Jul-04 21:28N 21°42' E 114°21'  
Track history (hours):
 
Tides and Currents Weather Stations Pressure Air Temp Water Temp Dewpoint Dewpoint Depression Visibility Wind Speed Wind Dir Waves Ship Positions

MOL Celebration

Last reported at 2015-Jul-06 18:08 UTC. Time now 2015-Jul-07 21:54 UTC.
Position N 23°51' E 118°29'.

Length 316 m; draft 13.2 m.

Type: Ship (hazmat cat D). MMSI: 309901000.

Date/timePositionNaut miles runAvg speedWind from/ knotsBaromVisibWave heightAir tempDewpointWater temp
2015-Jul-06 18:08N 23°51' E 118°29'1517.9
2015-Jul-06 17:17N 23°42' E 118°15'22917.8
2015-Jul-06 04:22N 22°07' E 114°28'2211.8
2015-Jul-06 02:31N 22°16' E 114°07'4 4.1
2015-Jul-06 01:33N 22°20' E 114°08'0 0.0
2015-Jul-06 00:33N 22°20' E 114°08'0 0.0
2015-Jul-05 23:33N 22°20' E 114°08'0 0.0
2015-Jul-05 22:33N 22°20' E 114°08'0 0.0
2015-Jul-05 21:33N 22°20' E 114°08'0 0.0
2015-Jul-05 20:33N 22°20' E 114°08'0 0.0
2015-Jul-05 19:33N 22°20' E 114°08'0 0.0
2015-Jul-05 18:33N 22°20' E 114°08'0 0.0
2015-Jul-05 17:30N 22°20' E 114°08'0 0.0
2015-Jul-05 16:33N 22°20' E 114°08'0 0.0
2015-Jul-05 15:21N 22°20' E 114°08'0 0.0
2015-Jul-05 14:33N 22°20' E 114°08'0 0.0
2015-Jul-05 12:33N 22°20' E 114°08'0 0.0
2015-Jul-05 10:24N 22°20' E 114°08'0 0.0
2015-Jul-05 09:17N 22°20' E 114°08'0 0.0
2015-Jul-05 08:33N 22°20' E 114°08'0 0.0
2015-Jul-05 07:27N 22°20' E 114°08'0 0.0
2015-Jul-05 06:33N 22°20' E 114°08'0 0.0
2015-Jul-05 05:30N 22°20' E 114°08'0 0.4
2015-Jul-05 04:33N 22°20' E 114°07'8 7.1
2015-Jul-05 03:29N 22°13' E 114°10'8 7.9
2015-Jul-05 02:29N 22°09' E 114°18'8 8.1
2015-Jul-05 01:33N 22°07' E 114°25'6 6.2
2015-Jul-05 00:33N 22°01' E 114°25'6 4.9
2015-Jul-04 23:20N 21°55' E 114°24'2 2.3
2015-Jul-04 22:33N 21°53' E 114°24'1110.4
2015-Jul-04 21:28N 21°42' E 114°21'  

Dump ship's entire track history